sensor_id;sensor_type;location;lat;lon;timestamp;temperature;humidity
41220;DHT22;26951;47.338;9.196;2023-01-01T00:01:41;6.30;71.20
41220;DHT22;26951;47.338;9.196;2023-01-01T00:04:25;6.30;70.60
41220;DHT22;26951;47.338;9.196;2023-01-01T00:07:09;6.20;71.00
41220;DHT22;26951;47.338;9.196;2023-01-01T00:09:53;6.20;71.10
41220;DHT22;26951;47.338;9.196;2023-01-01T00:12:57;6.20;70.80
41220;DHT22;26951;47.338;9.196;2023-01-01T00:15:42;6.30;70.60
41220;DHT22;26951;47.338;9.196;2023-01-01T00:18:26;6.30;69.50
41220;DHT22;26951;47.338;9.196;2023-01-01T00:21:13;6.20;70.00
41220;DHT22;26951;47.338;9.196;2023-01-01T00:23:57;6.20;69.10
41220;DHT22;26951;47.338;9.196;2023-01-01T00:26:42;6.20;69.40
41220;DHT22;26951;47.338;9.196;2023-01-01T00:29:26;6.10;68.50
41220;DHT22;26951;47.338;9.196;2023-01-01T00:32:10;6.10;69.60
41220;DHT22;26951;47.338;9.196;2023-01-01T00:34:55;6.10;68.90
41220;DHT22;26951;47.338;9.196;2023-01-01T00:37:39;6.10;68.00
41220;DHT22;26951;47.338;9.196;2023-01-01T00:40:23;6.00;67.70
41220;DHT22;26951;47.338;9.196;2023-01-01T00:43:07;6.00;66.90
41220;DHT22;26951;47.338;9.196;2023-01-01T00:45:52;5.90;66.60
41220;DHT22;26951;47.338;9.196;2023-01-01T00:48:36;5.80;66.40
41220;DHT22;26951;47.338;9.196;2023-01-01T00:51:20;5.70;66.30
41220;DHT22;26951;47.338;9.196;2023-01-01T00:54:05;5.60;66.20
41220;DHT22;26951;47.338;9.196;2023-01-01T00:56:49;5.50;67.70
41220;DHT22;26951;47.338;9.196;2023-01-01T00:59:33;5.50;68.00
41220;DHT22;26951;47.338;9.196;2023-01-01T01:02:17;5.40;68.60
41220;DHT22;26951;47.338;9.196;2023-01-01T01:05:01;5.40;72.60
41220;DHT22;26951;47.338;9.196;2023-01-01T01:07:47;5.40;72.20
41220;DHT22;26951;47.338;9.196;2023-01-01T01:10:31;5.50;71.60
41220;DHT22;26951;47.338;9.196;2023-01-01T01:13:15;5.40;70.70
41220;DHT22;26951;47.338;9.196;2023-01-01T01:16:00;5.40;70.70
41220;DHT22;26951;47.338;9.196;2023-01-01T01:18:45;5.40;70.80
41220;DHT22;26951;47.338;9.196;2023-01-01T01:21:32;5.40;71.50
41220;DHT22;26951;47.338;9.196;2023-01-01T01:24:16;5.40;72.40
41220;DHT22;26951;47.338;9.196;2023-01-01T01:27:00;5.50;73.00
41220;DHT22;26951;47.338;9.196;2023-01-01T01:29:44;5.40;72.20
41220;DHT22;26951;47.338;9.196;2023-01-01T01:32:28;5.40;72.40
41220;DHT22;26951;47.338;9.196;2023-01-01T01:35:12;5.40;72.10
41220;DHT22;26951;47.338;9.196;2023-01-01T01:37:57;5.40;71.80
41220;DHT22;26951;47.338;9.196;2023-01-01T01:40:42;5.40;71.90
41220;DHT22;26951;47.338;9.196;2023-01-01T01:46:22;5.40;73.30
41220;DHT22;26951;47.338;9.196;2023-01-01T01:49:17;5.30;73.80
41220;DHT22;26951;47.338;9.196;2023-01-01T01:52:04;5.30;74.00
41220;DHT22;26951;47.338;9.196;2023-01-01T01:54:48;5.40;75.70
41220;DHT22;26951;47.338;9.196;2023-01-01T01:57:33;5.40;75.40
41220;DHT22;26951;47.338;9.196;2023-01-01T02:00:17;5.40;75.40
41220;DHT22;26951;47.338;9.196;2023-01-01T02:03:13;5.50;76.30
41220;DHT22;26951;47.338;9.196;2023-01-01T02:06:00;5.50;78.10
41220;DHT22;26951;47.338;9.196;2023-01-01T02:08:45;5.60;78.40
41220;DHT22;26951;47.338;9.196;2023-01-01T02:11:30;5.70;77.20
41220;DHT22;26951;47.338;9.196;2023-01-01T02:14:14;5.80;76.60
41220;DHT22;26951;47.338;9.196;2023-01-01T02:17:22;5.90;75.70
41220;DHT22;26951;47.338;9.196;2023-01-01T02:20:34;5.90;76.00
41220;DHT22;26951;47.338;9.196;2023-01-01T02:26:49;6.10;75.00
41220;DHT22;26951;47.338;9.196;2023-01-01T02:29:43;6.10;74.70
41220;DHT22;26951;47.338;9.196;2023-01-01T02:32:49;6.10;73.80
41220;DHT22;26951;47.338;9.196;2023-01-01T02:35:43;6.10;73.80
41220;DHT22;26951;47.338;9.196;2023-01-01T02:38:38;6.20;73.70
41220;DHT22;26951;47.338;9.196;2023-01-01T02:41:27;6.10;74.20
41220;DHT22;26951;47.338;9.196;2023-01-01T02:44:13;6.10;73.00
41220;DHT22;26951;47.338;9.196;2023-01-01T02:47:06;6.10;71.50
41220;DHT22;26951;47.338;9.196;2023-01-01T02:50:04;6.10;72.20
41220;DHT22;26951;47.338;9.196;2023-01-01T02:53:07;6.10;72.20
41220;DHT22;26951;47.338;9.196;2023-01-01T02:57:00;6.10;71.90
41220;DHT22;26951;47.338;9.196;2023-01-01T03:02:37;6.00;70.50
41220;DHT22;26951;47.338;9.196;2023-01-01T03:05:34;5.90;69.50
41220;DHT22;26951;47.338;9.196;2023-01-01T03:08:47;5.90;70.40
41220;DHT22;26951;47.338;9.196;2023-01-01T03:12:00;5.80;70.20
41220;DHT22;26951;47.338;9.196;2023-01-01T03:15:01;5.70;69.40
41220;DHT22;26951;47.338;9.196;2023-01-01T03:18:03;5.60;69.20
41220;DHT22;26951;47.338;9.196;2023-01-01T03:20:50;5.60;69.70
41220;DHT22;26951;47.338;9.196;2023-01-01T03:23:41;5.50;70.30
41220;DHT22;26951;47.338;9.196;2023-01-01T03:26:29;5.50;69.60
41220;DHT22;26951;47.338;9.196;2023-01-01T03:29:17;5.40;69.20
41220;DHT22;26951;47.338;9.196;2023-01-01T03:32:04;5.40;70.50
41220;DHT22;26951;47.338;9.196;2023-01-01T03:34:52;5.30;69.80
41220;DHT22;26951;47.338;9.196;2023-01-01T03:37:37;5.30;69.30
41220;DHT22;26951;47.338;9.196;2023-01-01T03:40:22;5.30;69.70
41220;DHT22;26951;47.338;9.196;2023-01-01T03:43:25;5.20;68.90
41220;DHT22;26951;47.338;9.196;2023-01-01T03:46:13;5.10;68.60
41220;DHT22;26951;47.338;9.196;2023-01-01T03:49:00;5.00;68.50
41220;DHT22;26951;47.338;9.196;2023-01-01T03:54:35;4.90;73.80
41220;DHT22;26951;47.338;9.196;2023-01-01T03:57:26;4.90;74.70
41220;DHT22;26951;47.338;9.196;2023-01-01T04:00:14;5.00;74.70
41220;DHT22;26951;47.338;9.196;2023-01-01T04:03:04;5.00;72.80
41220;DHT22;26951;47.338;9.196;2023-01-01T04:05:49;5.00;72.30
41220;DHT22;26951;47.338;9.196;2023-01-01T04:08:34;5.00;71.50
41220;DHT22;26951;47.338;9.196;2023-01-01T04:11:22;5.00;70.80
41220;DHT22;26951;47.338;9.196;2023-01-01T04:14:35;4.90;69.60
41220;DHT22;26951;47.338;9.196;2023-01-01T04:17:20;4.80;70.70
41220;DHT22;26951;47.338;9.196;2023-01-01T04:20:04;4.80;70.70
41220;DHT22;26951;47.338;9.196;2023-01-01T04:22:48;4.80;72.20
41220;DHT22;26951;47.338;9.196;2023-01-01T04:25:32;4.80;72.70
41220;DHT22;26951;47.338;9.196;2023-01-01T04:28:17;4.80;77.10
41220;DHT22;26951;47.338;9.196;2023-01-01T04:31:01;4.80;75.70
41220;DHT22;26951;47.338;9.196;2023-01-01T04:33:45;4.90;74.70
41220;DHT22;26951;47.338;9.196;2023-01-01T04:36:30;4.90;73.70
41220;DHT22;26951;47.338;9.196;2023-01-01T04:39:14;4.90;73.70
41220;DHT22;26951;47.338;9.196;2023-01-01T04:41:58;4.80;75.70
41220;DHT22;26951;47.338;9.196;2023-01-01T04:44:42;4.90;75.70
41220;DHT22;26951;47.338;9.196;2023-01-01T04:47:26;4.90;75.20
41220;DHT22;26951;47.338;9.196;2023-01-01T04:50:11;4.90;74.30
41220;DHT22;26951;47.338;9.196;2023-01-01T04:52:57;4.90;75.70
41220;DHT22;26951;47.338;9.196;2023-01-01T04:55:41;5.00;73.80
41220;DHT22;26951;47.338;9.196;2023-01-01T04:58:25;5.00;73.40
41220;DHT22;26951;47.338;9.196;2023-01-01T05:01:22;5.00;73.00
41220;DHT22;26951;47.338;9.196;2023-01-01T05:04:06;5.00;72.70
41220;DHT22;26951;47.338;9.196;2023-01-01T05:06:51;4.90;71.90
41220;DHT22;26951;47.338;9.196;2023-01-01T05:09:35;4.80;71.00
41220;DHT22;26951;47.338;9.196;2023-01-01T05:12:19;4.80;70.80
41220;DHT22;26951;47.338;9.196;2023-01-01T05:15:03;4.80;72.80
41220;DHT22;26951;47.338;9.196;2023-01-01T05:17:48;4.80;72.60
41220;DHT22;26951;47.338;9.196;2023-01-01T05:20:32;4.70;73.00
41220;DHT22;26951;47.338;9.196;2023-01-01T05:23:16;4.60;71.50
41220;DHT22;26951;47.338;9.196;2023-01-01T05:26:18;4.60;72.50
41220;DHT22;26951;47.338;9.196;2023-01-01T05:29:03;4.50;73.30
41220;DHT22;26951;47.338;9.196;2023-01-01T05:31:48;4.50;72.40
41220;DHT22;26951;47.338;9.196;2023-01-01T05:34:32;4.50;73.00
41220;DHT22;26951;47.338;9.196;2023-01-01T05:37:16;4.50;73.00
41220;DHT22;26951;47.338;9.196;2023-01-01T05:40:01;4.40;73.00
41220;DHT22;26951;47.338;9.196;2023-01-01T05:42:46;4.40;73.60
41220;DHT22;26951;47.338;9.196;2023-01-01T05:45:31;4.30;73.30
41220;DHT22;26951;47.338;9.196;2023-01-01T05:48:15;4.40;74.30
41220;DHT22;26951;47.338;9.196;2023-01-01T05:51:04;4.30;74.30
41220;DHT22;26951;47.338;9.196;2023-01-01T05:53:48;4.30;75.20
41220;DHT22;26951;47.338;9.196;2023-01-01T05:56:32;4.30;80.00
41220;DHT22;26951;47.338;9.196;2023-01-01T05:59:17;4.40;80.10
41220;DHT22;26951;47.338;9.196;2023-01-01T06:02:01;4.50;79.10
41220;DHT22;26951;47.338;9.196;2023-01-01T06:04:45;4.50;78.10
41220;DHT22;26951;47.338;9.196;2023-01-01T06:07:30;4.50;75.60
41220;DHT22;26951;47.338;9.196;2023-01-01T06:10:14;4.40;79.30
41220;DHT22;26951;47.338;9.196;2023-01-01T06:12:58;4.40;79.70
41220;DHT22;26951;47.338;9.196;2023-01-01T06:15:42;4.50;78.80
41220;DHT22;26951;47.338;9.196;2023-01-01T06:18:32;4.60;77.40
41220;DHT22;26951;47.338;9.196;2023-01-01T06:21:20;4.60;75.50
41220;DHT22;26951;47.338;9.196;2023-01-01T06:24:05;4.60;76.80
41220;DHT22;26951;47.338;9.196;2023-01-01T06:26:49;4.60;75.50
41220;DHT22;26951;47.338;9.196;2023-01-01T06:29:33;4.60;73.20
41220;DHT22;26951;47.338;9.196;2023-01-01T06:32:17;4.40;79.90
41220;DHT22;26951;47.338;9.196;2023-01-01T06:35:01;4.40;79.90
41220;DHT22;26951;47.338;9.196;2023-01-01T06:37:46;4.50;82.80
41220;DHT22;26951;47.338;9.196;2023-01-01T06:40:30;4.60;82.00
41220;DHT22;26951;47.338;9.196;2023-01-01T06:43:14;4.70;80.40
41220;DHT22;26951;47.338;9.196;2023-01-01T06:46:02;4.80;78.10
41220;DHT22;26951;47.338;9.196;2023-01-01T06:48:48;4.80;78.40
41220;DHT22;26951;47.338;9.196;2023-01-01T06:51:36;4.80;77.10
41220;DHT22;26951;47.338;9.196;2023-01-01T06:54:21;4.80;75.70
41220;DHT22;26951;47.338;9.196;2023-01-01T06:57:05;4.70;73.50
41220;DHT22;26951;47.338;9.196;2023-01-01T06:59:49;4.70;74.70
41220;DHT22;26951;47.338;9.196;2023-01-01T07:02:33;4.60;74.70
41220;DHT22;26951;47.338;9.196;2023-01-01T07:05:18;4.60;74.00
41220;DHT22;26951;47.338;9.196;2023-01-01T07:08:02;4.60;73.80
41220;DHT22;26951;47.338;9.196;2023-01-01T07:10:47;4.50;73.30
41220;DHT22;26951;47.338;9.196;2023-01-01T07:13:31;4.50;73.30
41220;DHT22;26951;47.338;9.196;2023-01-01T07:16:15;4.50;73.90
41220;DHT22;26951;47.338;9.196;2023-01-01T07:19:00;4.40;74.00
41220;DHT22;26951;47.338;9.196;2023-01-01T07:21:45;4.40;73.70
41220;DHT22;26951;47.338;9.196;2023-01-01T07:24:34;4.40;73.80
41220;DHT22;26951;47.338;9.196;2023-01-01T07:27:18;4.40;74.20
41220;DHT22;26951;47.338;9.196;2023-01-01T07:30:02;4.40;74.50
41220;DHT22;26951;47.338;9.196;2023-01-01T07:32:53;4.40;75.40
41220;DHT22;26951;47.338;9.196;2023-01-01T07:35:38;4.30;76.70
41220;DHT22;26951;47.338;9.196;2023-01-01T07:38:22;4.30;77.30
41220;DHT22;26951;47.338;9.196;2023-01-01T07:41:06;4.40;77.10
41220;DHT22;26951;47.338;9.196;2023-01-01T07:43:50;4.40;76.90
41220;DHT22;26951;47.338;9.196;2023-01-01T07:46:35;4.40;77.40
41220;DHT22;26951;47.338;9.196;2023-01-01T07:49:20;4.40;77.90
41220;DHT22;26951;47.338;9.196;2023-01-01T07:52:04;4.40;77.50
41220;DHT22;26951;47.338;9.196;2023-01-01T07:54:48;4.40;77.90
41220;DHT22;26951;47.338;9.196;2023-01-01T07:57:32;4.40;78.70
41220;DHT22;26951;47.338;9.196;2023-01-01T08:00:18;4.50;80.10
41220;DHT22;26951;47.338;9.196;2023-01-01T08:03:04;4.50;80.70
41220;DHT22;26951;47.338;9.196;2023-01-01T08:05:49;4.50;82.70
41220;DHT22;26951;47.338;9.196;2023-01-01T08:08:33;4.60;83.60
41220;DHT22;26951;47.338;9.196;2023-01-01T08:11:17;4.70;83.80
41220;DHT22;26951;47.338;9.196;2023-01-01T08:14:01;4.80;83.20
41220;DHT22;26951;47.338;9.196;2023-01-01T08:16:45;4.90;82.80
41220;DHT22;26951;47.338;9.196;2023-01-01T08:19:29;5.00;82.60
41220;DHT22;26951;47.338;9.196;2023-01-01T08:22:14;5.00;82.60
41220;DHT22;26951;47.338;9.196;2023-01-01T08:24:58;5.10;82.10
41220;DHT22;26951;47.338;9.196;2023-01-01T08:27:43;5.10;82.10
41220;DHT22;26951;47.338;9.196;2023-01-01T08:30:27;5.20;82.40
41220;DHT22;26951;47.338;9.196;2023-01-01T08:33:11;5.20;82.30
41220;DHT22;26951;47.338;9.196;2023-01-01T08:35:55;5.30;82.90
41220;DHT22;26951;47.338;9.196;2023-01-01T08:38:39;5.30;83.00
41220;DHT22;26951;47.338;9.196;2023-01-01T08:41:23;5.40;83.00
41220;DHT22;26951;47.338;9.196;2023-01-01T08:44:07;5.40;82.90
41220;DHT22;26951;47.338;9.196;2023-01-01T08:46:52;5.50;83.20
41220;DHT22;26951;47.338;9.196;2023-01-01T08:49:36;5.50;83.30
41220;DHT22;26951;47.338;9.196;2023-01-01T08:52:21;5.60;83.50
41220;DHT22;26951;47.338;9.196;2023-01-01T08:55:05;5.70;83.90
41220;DHT22;26951;47.338;9.196;2023-01-01T08:57:50;5.70;84.20
41220;DHT22;26951;47.338;9.196;2023-01-01T09:00:34;5.80;84.50
41220;DHT22;26951;47.338;9.196;2023-01-01T09:03:18;5.90;85.70
41220;DHT22;26951;47.338;9.196;2023-01-01T09:06:02;6.00;86.10
41220;DHT22;26951;47.338;9.196;2023-01-01T09:08:47;6.10;86.80
41220;DHT22;26951;47.338;9.196;2023-01-01T09:11:31;6.30;87.50
41220;DHT22;26951;47.338;9.196;2023-01-01T09:14:15;6.40;88.60
41220;DHT22;26951;47.338;9.196;2023-01-01T09:16:59;6.60;89.40
41220;DHT22;26951;47.338;9.196;2023-01-01T09:19:44;6.70;89.50
41220;DHT22;26951;47.338;9.196;2023-01-01T09:22:28;6.90;90.10
41220;DHT22;26951;47.338;9.196;2023-01-01T09:25:12;7.00;90.10
41220;DHT22;26951;47.338;9.196;2023-01-01T09:27:57;7.10;90.20
41220;DHT22;26951;47.338;9.196;2023-01-01T09:30:41;7.20;90.10
41220;DHT22;26951;47.338;9.196;2023-01-01T09:33:26;7.40;90.20
41220;DHT22;26951;47.338;9.196;2023-01-01T09:36:23;7.50;90.30
41220;DHT22;26951;47.338;9.196;2023-01-01T09:39:11;7.70;90.80
41220;DHT22;26951;47.338;9.196;2023-01-01T09:45:27;8.10;91.00
41220;DHT22;26951;47.338;9.196;2023-01-01T09:48:14;8.30;91.20
41220;DHT22;26951;47.338;9.196;2023-01-01T09:51:00;8.60;91.30
41220;DHT22;26951;47.338;9.196;2023-01-01T09:54:06;8.80;91.10
41220;DHT22;26951;47.338;9.196;2023-01-01T09:56:56;9.20;91.60
41220;DHT22;26951;47.338;9.196;2023-01-01T09:59:42;9.60;91.30
41220;DHT22;26951;47.338;9.196;2023-01-01T10:02:42;9.90;90.90
41220;DHT22;26951;47.338;9.196;2023-01-01T10:11:35;11.10;87.60
41220;DHT22;26951;47.338;9.196;2023-01-01T10:17:22;11.90;80.00
41220;DHT22;26951;47.338;9.196;2023-01-01T10:20:25;12.20;77.20
41220;DHT22;26951;47.338;9.196;2023-01-01T10:23:24;12.50;75.70
41220;DHT22;26951;47.338;9.196;2023-01-01T10:26:14;12.80;72.90
41220;DHT22;26951;47.338;9.196;2023-01-01T10:31:52;13.30;71.80
41220;DHT22;26951;47.338;9.196;2023-01-01T10:34:37;13.60;69.40
41220;DHT22;26951;47.338;9.196;2023-01-01T10:37:22;13.70;66.60
41220;DHT22;26951;47.338;9.196;2023-01-01T10:40:18;13.80;66.30
41220;DHT22;26951;47.338;9.196;2023-01-01T10:43:02;14.10;64.70
41220;DHT22;26951;47.338;9.196;2023-01-01T10:45:52;14.30;64.60
41220;DHT22;26951;47.338;9.196;2023-01-01T10:48:37;14.50;64.40
41220;DHT22;26951;47.338;9.196;2023-01-01T10:51:22;14.70;61.30
41220;DHT22;26951;47.338;9.196;2023-01-01T11:00:23;15.40;60.90
41220;DHT22;26951;47.338;9.196;2023-01-01T11:03:18;15.70;59.50
41220;DHT22;26951;47.338;9.196;2023-01-01T11:08:59;16.00;57.50
41220;DHT22;26951;47.338;9.196;2023-01-01T11:11:47;16.10;56.90
41220;DHT22;26951;47.338;9.196;2023-01-01T11:14:40;16.20;55.70
41220;DHT22;26951;47.338;9.196;2023-01-01T11:17:28;16.20;52.80
41220;DHT22;26951;47.338;9.196;2023-01-01T11:20:19;16.40;52.20
41220;DHT22;26951;47.338;9.196;2023-01-01T11:23:18;16.50;51.70
41220;DHT22;26951;47.338;9.196;2023-01-01T11:31:57;16.80;52.20
41220;DHT22;26951;47.338;9.196;2023-01-01T11:34:43;17.00;53.00
41220;DHT22;26951;47.338;9.196;2023-01-01T11:37:33;17.10;53.00
41220;DHT22;26951;47.338;9.196;2023-01-01T11:40:28;17.20;51.90
41220;DHT22;26951;47.338;9.196;2023-01-01T11:43:21;17.20;51.40
41220;DHT22;26951;47.338;9.196;2023-01-01T11:46:08;17.20;51.60
41220;DHT22;26951;47.338;9.196;2023-01-01T11:48:53;17.30;51.80
41220;DHT22;26951;47.338;9.196;2023-01-01T11:51:38;17.40;51.00
41220;DHT22;26951;47.338;9.196;2023-01-01T11:54:33;17.60;50.90
41220;DHT22;26951;47.338;9.196;2023-01-01T11:57:24;17.70;51.10
41220;DHT22;26951;47.338;9.196;2023-01-01T12:00:13;17.80;51.00
41220;DHT22;26951;47.338;9.196;2023-01-01T12:03:03;17.90;50.80
41220;DHT22;26951;47.338;9.196;2023-01-01T12:09:11;18.00;49.40
41220;DHT22;26951;47.338;9.196;2023-01-01T12:12:05;18.10;49.70
41220;DHT22;26951;47.338;9.196;2023-01-01T12:15:14;18.10;49.10
41220;DHT22;26951;47.338;9.196;2023-01-01T12:18:28;18.20;49.60
41220;DHT22;26951;47.338;9.196;2023-01-01T12:21:21;18.20;49.00
41220;DHT22;26951;47.338;9.196;2023-01-01T12:24:10;18.20;48.90
41220;DHT22;26951;47.338;9.196;2023-01-01T12:27:27;18.20;48.80
41220;DHT22;26951;47.338;9.196;2023-01-01T12:30:30;18.30;49.10
41220;DHT22;26951;47.338;9.196;2023-01-01T12:33:43;18.50;49.10
41220;DHT22;26951;47.338;9.196;2023-01-01T12:36:43;18.50;48.30
41220;DHT22;26951;47.338;9.196;2023-01-01T12:43:02;18.50;47.80
41220;DHT22;26951;47.338;9.196;2023-01-01T13:01:07;18.90;47.10
41220;DHT22;26951;47.338;9.196;2023-01-01T13:04:02;18.90;46.30
41220;DHT22;26951;47.338;9.196;2023-01-01T13:06:53;18.90;47.00
41220;DHT22;26951;47.338;9.196;2023-01-01T13:09:46;18.90;47.00
41220;DHT22;26951;47.338;9.196;2023-01-01T13:12:31;18.90;47.70
41220;DHT22;26951;47.338;9.196;2023-01-01T13:22:34;18.70;46.80
41220;DHT22;26951;47.338;9.196;2023-01-01T13:25:21;18.60;47.00
41220;DHT22;26951;47.338;9.196;2023-01-01T13:28:11;18.70;47.60
41220;DHT22;26951;47.338;9.196;2023-01-01T13:30:56;18.60;47.30
41220;DHT22;26951;47.338;9.196;2023-01-01T13:33:40;18.60;47.50
41220;DHT22;26951;47.338;9.196;2023-01-01T13:39:11;18.40;48.00
41220;DHT22;26951;47.338;9.196;2023-01-01T13:43:32;18.40;47.70
41220;DHT22;26951;47.338;9.196;2023-01-01T13:45:46;18.20;46.80
41220;DHT22;26951;47.338;9.196;2023-01-01T13:48:55;18.10;47.40
41220;DHT22;26951;47.338;9.196;2023-01-01T13:52:04;18.00;48.00
41220;DHT22;26951;47.338;9.196;2023-01-01T13:54:55;17.90;47.90
41220;DHT22;26951;47.338;9.196;2023-01-01T13:57:54;17.80;47.90
41220;DHT22;26951;47.338;9.196;2023-01-01T14:00:53;17.50;47.60
41220;DHT22;26951;47.338;9.196;2023-01-01T14:03:50;17.30;47.70
41220;DHT22;26951;47.338;9.196;2023-01-01T14:06:38;17.10;47.80
41220;DHT22;26951;47.338;9.196;2023-01-01T14:09:24;16.80;47.60
41220;DHT22;26951;47.338;9.196;2023-01-01T14:12:16;16.60;47.90
41220;DHT22;26951;47.338;9.196;2023-01-01T14:15:21;16.30;47.80
41220;DHT22;26951;47.338;9.196;2023-01-01T14:18:11;16.00;48.00
41220;DHT22;26951;47.338;9.196;2023-01-01T14:20:56;15.70;48.80
41220;DHT22;26951;47.338;9.196;2023-01-01T14:23:43;15.50;49.20
41220;DHT22;26951;47.338;9.196;2023-01-01T14:26:29;15.30;49.50
41220;DHT22;26951;47.338;9.196;2023-01-01T14:29:28;15.20;49.90
41220;DHT22;26951;47.338;9.196;2023-01-01T14:32:20;15.00;51.10
41220;DHT22;26951;47.338;9.196;2023-01-01T14:35:13;14.80;50.70
41220;DHT22;26951;47.338;9.196;2023-01-01T14:38:17;14.60;50.40
41220;DHT22;26951;47.338;9.196;2023-01-01T14:41:07;14.40;50.70
41220;DHT22;26951;47.338;9.196;2023-01-01T14:44:03;14.30;51.20
41220;DHT22;26951;47.338;9.196;2023-01-01T14:46:50;14.10;51.60
41220;DHT22;26951;47.338;9.196;2023-01-01T14:49:37;14.00;51.70
41220;DHT22;26951;47.338;9.196;2023-01-01T14:52:26;13.90;51.70
41220;DHT22;26951;47.338;9.196;2023-01-01T14:55:18;13.70;51.30
41220;DHT22;26951;47.338;9.196;2023-01-01T14:58:03;13.50;51.30
41220;DHT22;26951;47.338;9.196;2023-01-01T15:00:47;13.40;51.40
41220;DHT22;26951;47.338;9.196;2023-01-01T15:03:31;13.20;51.40
41220;DHT22;26951;47.338;9.196;2023-01-01T15:06:16;13.00;51.60
41220;DHT22;26951;47.338;9.196;2023-01-01T15:09:01;12.60;51.50
41220;DHT22;26951;47.338;9.196;2023-01-01T15:11:45;12.40;52.00
41220;DHT22;26951;47.338;9.196;2023-01-01T15:17:18;11.80;52.50
41220;DHT22;26951;47.338;9.196;2023-01-01T15:20:27;11.50;52.80
41220;DHT22;26951;47.338;9.196;2023-01-01T15:23:14;11.30;53.90
41220;DHT22;26951;47.338;9.196;2023-01-01T15:25:58;11.10;56.00
41220;DHT22;26951;47.338;9.196;2023-01-01T15:28:43;11.00;55.70
41220;DHT22;26951;47.338;9.196;2023-01-01T15:31:38;10.90;55.60
41220;DHT22;26951;47.338;9.196;2023-01-01T15:34:47;10.70;54.80
41220;DHT22;26951;47.338;9.196;2023-01-01T15:37:47;10.40;58.20
41220;DHT22;26951;47.338;9.196;2023-01-01T15:40:33;10.10;59.50
41220;DHT22;26951;47.338;9.196;2023-01-01T15:43:22;10.10;58.70
41220;DHT22;26951;47.338;9.196;2023-01-01T15:46:19;10.00;56.60
41220;DHT22;26951;47.338;9.196;2023-01-01T15:49:27;9.80;59.80
41220;DHT22;26951;47.338;9.196;2023-01-01T15:52:20;9.70;60.40
41220;DHT22;26951;47.338;9.196;2023-01-01T15:55:06;9.70;60.50
41220;DHT22;26951;47.338;9.196;2023-01-01T15:57:50;9.60;58.50
41220;DHT22;26951;47.338;9.196;2023-01-01T16:00:37;9.50;57.80
41220;DHT22;26951;47.338;9.196;2023-01-01T16:03:25;9.30;59.20
41220;DHT22;26951;47.338;9.196;2023-01-01T16:06:17;9.30;59.60
41220;DHT22;26951;47.338;9.196;2023-01-01T16:09:02;9.20;59.10
41220;DHT22;26951;47.338;9.196;2023-01-01T16:11:51;9.00;59.80
41220;DHT22;26951;47.338;9.196;2023-01-01T16:14:35;8.90;60.70
41220;DHT22;26951;47.338;9.196;2023-01-01T16:17:20;8.90;59.70
41220;DHT22;26951;47.338;9.196;2023-01-01T16:20:04;8.80;59.30
41220;DHT22;26951;47.338;9.196;2023-01-01T16:22:49;8.70;59.00
41220;DHT22;26951;47.338;9.196;2023-01-01T16:25:33;8.60;59.10
41220;DHT22;26951;47.338;9.196;2023-01-01T16:28:17;8.50;59.20
41220;DHT22;26951;47.338;9.196;2023-01-01T16:31:01;8.30;58.50
41220;DHT22;26951;47.338;9.196;2023-01-01T16:33:50;8.20;60.00
41220;DHT22;26951;47.338;9.196;2023-01-01T16:36:35;8.10;61.40
41220;DHT22;26951;47.338;9.196;2023-01-01T16:39:19;8.10;61.30
41220;DHT22;26951;47.338;9.196;2023-01-01T16:42:03;8.00;62.80
41220;DHT22;26951;47.338;9.196;2023-01-01T16:44:47;7.80;65.00
41220;DHT22;26951;47.338;9.196;2023-01-01T16:47:31;7.80;64.40
41220;DHT22;26951;47.338;9.196;2023-01-01T16:50:15;7.70;66.40
41220;DHT22;26951;47.338;9.196;2023-01-01T16:53:00;7.70;66.10
41220;DHT22;26951;47.338;9.196;2023-01-01T16:55:49;7.70;65.00
41220;DHT22;26951;47.338;9.196;2023-01-01T16:58:33;7.70;66.10
41220;DHT22;26951;47.338;9.196;2023-01-01T17:01:18;7.70;64.30
41220;DHT22;26951;47.338;9.196;2023-01-01T17:04:03;7.70;64.10
41220;DHT22;26951;47.338;9.196;2023-01-01T17:06:47;7.70;63.40
41220;DHT22;26951;47.338;9.196;2023-01-01T17:09:31;7.70;62.50
41220;DHT22;26951;47.338;9.196;2023-01-01T17:12:15;7.60;61.90
41220;DHT22;26951;47.338;9.196;2023-01-01T17:14:59;7.40;65.50
41220;DHT22;26951;47.338;9.196;2023-01-01T17:17:43;7.40;64.20
41220;DHT22;26951;47.338;9.196;2023-01-01T17:20:27;7.30;64.70
41220;DHT22;26951;47.338;9.196;2023-01-01T17:23:11;7.30;64.50
41220;DHT22;26951;47.338;9.196;2023-01-01T17:26:04;7.30;64.30
41220;DHT22;26951;47.338;9.196;2023-01-01T17:28:50;7.30;63.80
41220;DHT22;26951;47.338;9.196;2023-01-01T17:31:34;7.20;63.30
41220;DHT22;26951;47.338;9.196;2023-01-01T17:34:19;7.10;66.20
41220;DHT22;26951;47.338;9.196;2023-01-01T17:37:03;7.10;65.00
41220;DHT22;26951;47.338;9.196;2023-01-01T17:39:47;7.10;63.60
41220;DHT22;26951;47.338;9.196;2023-01-01T17:42:33;7.00;63.50
41220;DHT22;26951;47.338;9.196;2023-01-01T17:45:17;7.00;64.70
41220;DHT22;26951;47.338;9.196;2023-01-01T17:48:01;6.90;64.80
41220;DHT22;26951;47.338;9.196;2023-01-01T17:50:45;7.00;64.30
41220;DHT22;26951;47.338;9.196;2023-01-01T17:53:29;6.90;64.10
41220;DHT22;26951;47.338;9.196;2023-01-01T17:56:15;6.90;64.30
41220;DHT22;26951;47.338;9.196;2023-01-01T17:58:59;6.90;64.00
41220;DHT22;26951;47.338;9.196;2023-01-01T18:01:43;6.80;66.30
41220;DHT22;26951;47.338;9.196;2023-01-01T18:04:29;6.80;66.70
41220;DHT22;26951;47.338;9.196;2023-01-01T18:07:13;6.90;65.70
41220;DHT22;26951;47.338;9.196;2023-01-01T18:09:57;6.90;65.50
41220;DHT22;26951;47.338;9.196;2023-01-01T18:12:41;6.90;65.20
41220;DHT22;26951;47.338;9.196;2023-01-01T18:15:26;6.90;65.40
41220;DHT22;26951;47.338;9.196;2023-01-01T18:18:10;6.90;65.70
41220;DHT22;26951;47.338;9.196;2023-01-01T18:21:03;6.80;65.30
41220;DHT22;26951;47.338;9.196;2023-01-01T18:23:50;6.80;65.60
41220;DHT22;26951;47.338;9.196;2023-01-01T18:26:34;6.80;65.70
41220;DHT22;26951;47.338;9.196;2023-01-01T18:29:18;6.90;65.10
41220;DHT22;26951;47.338;9.196;2023-01-01T18:32:03;7.00;64.20
41220;DHT22;26951;47.338;9.196;2023-01-01T18:34:47;7.10;64.10
41220;DHT22;26951;47.338;9.196;2023-01-01T18:37:35;7.10;63.90
41220;DHT22;26951;47.338;9.196;2023-01-01T18:40:19;7.10;63.60
41220;DHT22;26951;47.338;9.196;2023-01-01T18:43:13;7.10;63.20
41220;DHT22;26951;47.338;9.196;2023-01-01T18:46:00;7.10;62.40
41220;DHT22;26951;47.338;9.196;2023-01-01T18:48:45;7.20;62.70
41220;DHT22;26951;47.338;9.196;2023-01-01T18:51:29;7.20;62.60
41220;DHT22;26951;47.338;9.196;2023-01-01T18:54:13;7.20;62.60
41220;DHT22;26951;47.338;9.196;2023-01-01T18:57:19;7.20;62.90
41220;DHT22;26951;47.338;9.196;2023-01-01T19:00:12;7.20;62.90
41220;DHT22;26951;47.338;9.196;2023-01-01T19:03:00;7.20;63.00
41220;DHT22;26951;47.338;9.196;2023-01-01T19:05:45;7.10;63.20
41220;DHT22;26951;47.338;9.196;2023-01-01T19:08:30;7.10;63.60
41220;DHT22;26951;47.338;9.196;2023-01-01T19:11:19;7.00;63.50
41220;DHT22;26951;47.338;9.196;2023-01-01T19:14:13;7.00;63.50